Time;durP1;ratioP1;P1;durP2;ratioP2;P2;SDS_P1;SDS_P2;PMS_P1;PMS_P2;Temp;Humidity;BMP_temperature;BMP_pressure;BME280_temperature;BME280_humidity;BME280_pressure;Samples;Min_cycle;Max_cycle;Signal;HPM_P1;HPM_P2
2023/07/29 00:01:20;;;;;;;2.40;2.20;;;23.00;78.70;;;;;;5033505;28;20314;-44
2023/07/29 00:03:46;;;;;;;2.33;2.13;;;22.90;79.50;;;;;;5034311;28;20667;-44
2023/07/29 00:06:11;;;;;;;2.50;2.30;;;22.80;79.70;;;;;;5033641;28;20185;-44
2023/07/29 00:08:37;;;;;;;4.93;2.40;;;22.80;80.00;;;;;;5032816;28;20197;-46
2023/07/29 00:11:02;;;;;;;2.50;2.30;;;22.50;81.70;;;;;;5033404;28;20281;-47
2023/07/29 00:13:28;;;;;;;4.80;3.00;;;22.30;83.40;;;;;;5048288;28;20208;-45
2023/07/29 00:15:55;;;;;;;4.53;2.33;;;22.20;84.50;;;;;;5053137;28;20273;-49
2023/07/29 00:18:22;;;;;;;2.13;2.00;;;22.40;84.10;;;;;;5053499;28;20212;-45
2023/07/29 00:20:47;;;;;;;4.93;2.80;;;22.30;83.70;;;;;;5053122;28;20494;-49
2023/07/29 00:23:13;;;;;;;2.30;2.20;;;22.40;83.20;;;;;;5053357;28;20913;-48
2023/07/29 00:25:39;;;;;;;7.83;2.27;;;22.50;83.20;;;;;;5053694;28;20275;-48
2023/07/29 00:28:04;;;;;;;4.30;2.00;;;22.50;82.30;;;;;;5053493;28;20192;-47
2023/07/29 00:30:30;;;;;;;2.40;1.70;;;22.60;81.60;;;;;;5053120;28;20722;-48
2023/07/29 00:32:55;;;;;;;1.70;1.60;;;22.50;81.60;;;;;;5053565;28;20658;-49
2023/07/29 00:35:21;;;;;;;5.13;2.00;;;22.50;82.90;;;;;;5038039;28;20554;-48
2023/07/29 00:37:46;;;;;;;2.60;1.67;;;22.40;82.40;;;;;;5053750;28;20561;-44
2023/07/29 00:40:21;;;;;;;2.70;1.70;;;22.40;82.40;;;;;;5052608;28;20701;-44
2023/07/29 00:42:46;;;;;;;2.30;1.80;;;22.30;83.30;;;;;;5053032;28;20207;-46
2023/07/29 00:45:12;;;;;;;3.77;1.93;;;22.20;84.20;;;;;;5052832;28;20752;-45
2023/07/29 00:47:38;;;;;;;1.80;1.70;;;22.30;83.80;;;;;;5053538;28;20192;-45
2023/07/29 00:50:06;;;;;;;1.80;1.70;;;22.40;83.20;;;;;;5052832;28;20200;-44
2023/07/29 00:52:32;;;;;;;1.90;1.80;;;22.10;84.60;;;;;;5053395;28;20445;-44
2023/07/29 00:54:57;;;;;;;1.80;1.70;;;21.80;86.40;;;;;;5052446;28;20510;-45
2023/07/29 00:57:25;;;;;;;2.07;1.90;;;21.80;88.00;;;;;;5053506;28;20184;-45
2023/07/29 00:59:51;;;;;;;1.97;1.73;;;21.80;87.50;;;;;;5052840;28;20200;-44
2023/07/29 01:02:16;;;;;;;2.60;2.40;;;22.00;86.10;;;;;;5051173;28;20544;-47
2023/07/29 01:04:42;;;;;;;2.87;2.60;;;22.30;85.00;;;;;;5052855;28;20189;-48
2023/07/29 01:07:29;;;;;;;3.47;2.40;;;22.40;84.30;;;;;;5052276;28;20192;-46
2023/07/29 01:09:58;;;;;;;2.20;1.90;;;22.50;83.30;;;;;;5052665;28;20197;-49
2023/07/29 01:13:01;;;;;;;1.90;1.80;;;22.50;82.50;;;;;;5052606;28;20423;-48
2023/07/29 01:15:41;;;;;;;2.33;2.13;;;22.30;83.20;;;;;;5028335;28;20823;-45
2023/07/29 01:18:14;;;;;;;2.00;1.90;;;22.00;86.30;;;;;;5052945;28;20427;-47
2023/07/29 01:20:42;;;;;;;5.77;2.67;;;21.90;87.20;;;;;;5052143;28;20479;-47
2023/07/29 01:23:07;;;;;;;4.47;2.60;;;21.80;87.50;;;;;;5052417;28;20789;-46
2023/07/29 01:25:33;;;;;;;2.47;1.83;;;21.90;88.80;;;;;;5051943;28;20419;-48
2023/07/29 01:27:58;;;;;;;2.80;2.60;;;21.70;88.70;;;;;;5051692;28;20188;-47
2023/07/29 01:30:30;;;;;;;2.10;1.90;;;21.60;89.50;;;;;;5051651;28;20232;-49
2023/07/29 01:33:10;;;;;;;2.00;1.80;;;21.60;89.90;;;;;;5052428;28;20193;-45
2023/07/29 01:35:41;;;;;;;2.30;2.10;;;21.60;89.30;;;;;;5051909;28;20443;-48
2023/07/29 01:38:16;;;;;;;4.07;2.00;;;21.30;91.10;;;;;;5052143;28;20477;-47
2023/07/29 01:40:43;;;;;;;2.60;2.40;;;21.40;90.70;;;;;;5051123;28;20479;-48
2023/07/29 01:43:10;;;;;;;2.70;2.50;;;21.60;90.00;;;;;;5051845;28;20434;-46
2023/07/29 01:45:37;;;;;;;2.70;2.27;;;21.70;89.20;;;;;;5051660;28;20430;-45
2023/07/29 01:48:05;;;;;;;2.30;2.10;;;21.50;90.20;;;;;;5052357;28;20437;-45
2023/07/29 01:50:31;;;;;;;2.10;2.00;;;21.50;90.50;;;;;;5051414;28;20435;-48
2023/07/29 01:52:58;;;;;;;3.20;3.00;;;21.50;90.40;;;;;;5051750;28;20442;-43
2023/07/29 01:55:23;;;;;;;3.53;3.00;;;21.70;90.00;;;;;;5050036;28;20430;-49
2023/07/29 01:57:49;;;;;;;2.97;2.77;;;21.60;90.00;;;;;;5052350;28;20427;-48
2023/07/29 02:00:15;;;;;;;2.30;2.10;;;21.60;90.00;;;;;;5051451;28;20216;-46
2023/07/29 02:02:41;;;;;;;5.27;2.27;;;21.70;90.10;;;;;;5051471;28;20193;-45
2023/07/29 02:05:07;;;;;;;2.30;2.10;;;21.80;88.10;;;;;;5051668;28;20450;-49
2023/07/29 02:07:32;;;;;;;2.23;1.90;;;21.80;87.70;;;;;;5051680;28;20656;-49
2023/07/29 02:09:58;;;;;;;2.30;2.20;;;21.80;87.80;;;;;;5051351;28;20634;-44
2023/07/29 02:12:24;;;;;;;3.00;1.93;;;21.90;87.00;;;;;;5051788;28;20193;-44
2023/07/29 02:14:49;;;;;;;1.93;1.83;;;22.10;85.90;;;;;;5050854;28;20270;-47
2023/07/29 02:17:15;;;;;;;1.60;1.50;;;22.10;85.70;;;;;;5051534;28;20203;-48
2023/07/29 02:19:41;;;;;;;1.80;1.53;;;22.10;85.60;;;;;;5051890;28;20275;-47
2023/07/29 02:22:06;;;;;;;2.53;2.07;;;22.00;85.70;;;;;;5049242;28;20262;-43
2023/07/29 02:24:32;;;;;;;1.87;1.70;;;22.00;85.70;;;;;;5051290;28;20189;-44
2023/07/29 02:26:57;;;;;;;1.67;1.50;;;22.00;85.70;;;;;;5051113;28;20258;-46
2023/07/29 02:29:24;;;;;;;1.90;1.80;;;22.20;84.90;;;;;;5051793;28;20263;-44
2023/07/29 02:31:50;;;;;;;2.00;1.90;;;22.30;84.00;;;;;;5051106;28;20200;-45
2023/07/29 02:34:16;;;;;;;1.70;1.60;;;22.30;83.50;;;;;;5051246;28;20419;-43
2023/07/29 02:36:41;;;;;;;3.57;1.97;;;22.20;83.60;;;;;;5050618;28;20279;-49
2023/07/29 02:39:07;;;;;;;3.90;1.80;;;22.10;83.80;;;;;;5051344;28;20640;-46
2023/07/29 02:41:32;;;;;;;1.90;1.57;;;22.00;85.00;;;;;;5051058;28;20252;-43
2023/07/29 02:43:58;;;;;;;2.50;2.30;;;21.90;85.10;;;;;;5050979;28;20188;-43
2023/07/29 02:46:24;;;;;;;2.40;2.17;;;21.90;85.20;;;;;;5050902;28;20253;-44
2023/07/29 02:48:51;;;;;;;2.20;2.10;;;21.90;84.70;;;;;;5049989;28;20424;-48
2023/07/29 02:51:16;;;;;;;2.70;1.87;;;21.90;84.80;;;;;;5050465;28;20245;-43
2023/07/29 02:53:42;;;;;;;3.60;1.93;;;21.80;85.70;;;;;;5051070;28;20435;-43
2023/07/29 02:56:09;;;;;;;2.93;1.73;;;21.90;85.00;;;;;;5050712;28;20192;-48
2023/07/29 02:58:36;;;;;;;2.00;1.90;;;22.10;83.90;;;;;;5051327;28;20196;-45
2023/07/29 03:01:03;;;;;;;2.87;1.90;;;22.10;83.20;;;;;;5050612;28;20849;-45
2023/07/29 03:03:29;;;;;;;3.03;2.10;;;22.20;82.40;;;;;;5050687;28;20415;-45
2023/07/29 03:06:06;;;;;;;2.17;1.97;;;22.30;81.80;;;;;;5050777;28;20459;-43
2023/07/29 03:08:33;;;;;;;2.30;1.87;;;22.20;82.30;;;;;;5051502;28;20452;-44
2023/07/29 03:10:59;;;;;;;1.93;1.43;;;22.00;83.30;;;;;;5050717;28;20423;-43
2023/07/29 03:13:24;;;;;;;2.50;1.73;;;22.00;83.70;;;;;;5050930;28;20472;-44
2023/07/29 03:15:51;;;;;;;2.57;1.70;;;21.90;84.00;;;;;;5034829;28;20455;-46
2023/07/29 03:18:16;;;;;;;3.40;2.40;;;21.90;84.10;;;;;;5051270;28;20200;-44
2023/07/29 03:20:42;;;;;;;2.10;2.00;;;21.80;85.40;;;;;;5050423;28;20478;-42
2023/07/29 03:23:07;;;;;;;4.73;2.20;;;21.80;85.30;;;;;;5050903;28;20271;-46
2023/07/29 03:25:33;;;;;;;2.50;2.00;;;21.90;84.90;;;;;;5050231;28;20561;-44
2023/07/29 03:27:59;;;;;;;2.47;2.27;;;22.00;84.10;;;;;;5051094;28;20272;-44
2023/07/29 03:30:24;;;;;;;2.47;2.10;;;22.00;83.10;;;;;;5050362;28;20212;-43
2023/07/29 03:32:50;;;;;;;3.83;2.30;;;22.20;82.50;;;;;;5050536;28;20196;-45
2023/07/29 03:35:16;;;;;;;2.83;2.30;;;22.30;81.80;;;;;;5050267;28;20640;-48
2023/07/29 03:37:41;;;;;;;2.53;1.90;;;22.30;80.80;;;;;;5051206;28;20193;-47
2023/07/29 03:40:09;;;;;;;2.03;1.83;;;22.20;80.90;;;;;;5050225;28;20548;-43
2023/07/29 03:42:35;;;;;;;2.37;1.97;;;22.30;81.00;;;;;;5049068;28;20200;-48
2023/07/29 03:45:00;;;;;;;3.13;2.00;;;22.30;80.40;;;;;;5049893;28;20415;-43
2023/07/29 03:47:26;;;;;;;1.90;1.80;;;22.30;80.30;;;;;;5050947;28;21057;-43
2023/07/29 03:49:52;;;;;;;1.80;1.70;;;22.20;81.10;;;;;;5050298;28;20583;-43
2023/07/29 03:52:17;;;;;;;3.07;2.00;;;22.20;81.00;;;;;;5050113;28;20502;-44
2023/07/29 03:54:43;;;;;;;1.77;1.67;;;22.10;81.20;;;;;;5050561;28;20227;-44
2023/07/29 03:57:08;;;;;;;2.03;1.57;;;22.10;81.40;;;;;;5050095;28;20197;-43
2023/07/29 03:59:34;;;;;;;2.30;2.10;;;22.10;81.90;;;;;;5050669;28;20192;-43
2023/07/29 04:02:00;;;;;;;3.40;1.90;;;22.00;82.50;;;;;;5049856;28;20926;-45
2023/07/29 04:04:26;;;;;;;4.17;2.27;;;22.00;83.10;;;;;;5054052;28;20196;-44
2023/07/29 04:06:51;;;;;;;3.10;1.90;;;22.00;83.10;;;;;;5053656;28;20197;-43
2023/07/29 04:09:17;;;;;;;1.70;1.60;;;22.00;83.00;;;;;;5053805;28;20438;-44
2023/07/29 04:11:43;;;;;;;2.10;1.70;;;22.00;83.30;;;;;;5051998;28;20243;-43
2023/07/29 04:14:08;;;;;;;3.50;2.20;;;21.90;83.60;;;;;;5053513;28;20498;-43
2023/07/29 04:16:34;;;;;;;6.47;2.50;;;22.00;83.50;;;;;;5053597;28;20196;-44
2023/07/29 04:18:59;;;;;;;4.33;2.23;;;22.20;83.10;;;;;;5053808;28;20191;-43
2023/07/29 04:21:25;;;;;;;2.80;2.17;;;22.30;82.50;;;;;;5053497;28;20274;-44
2023/07/29 04:23:51;;;;;;;2.93;2.07;;;22.30;82.50;;;;;;5053561;28;20192;-44
2023/07/29 04:26:16;;;;;;;2.27;2.07;;;22.20;83.30;;;;;;5053490;28;20185;-43
2023/07/29 04:28:42;;;;;;;1.90;1.80;;;22.00;84.00;;;;;;5053455;28;20197;-43
2023/07/29 04:31:08;;;;;;;4.00;2.47;;;22.00;84.80;;;;;;5053145;28;20196;-47
2023/07/29 04:33:33;;;;;;;3.23;1.83;;;22.10;84.90;;;;;;5053304;28;20427;-43
2023/07/29 04:35:59;;;;;;;2.23;2.03;;;22.10;84.40;;;;;;5052817;28;20239;-43
2023/07/29 04:38:30;;;;;;;4.10;2.10;;;22.20;84.30;;;;;;5052082;28;20203;-43
2023/07/29 04:40:56;;;;;;;4.10;2.00;;;22.00;85.00;;;;;;5053148;28;20263;-44
2023/07/29 04:43:21;;;;;;;3.00;1.97;;;21.90;85.90;;;;;;5053190;28;20470;-44
2023/07/29 04:45:47;;;;;;;2.83;2.20;;;21.90;86.00;;;;;;5052983;28;20622;-43
2023/07/29 04:48:12;;;;;;;2.80;2.13;;;22.10;85.20;;;;;;5053454;28;20196;-45
2023/07/29 04:50:38;;;;;;;3.03;1.80;;;22.00;85.80;;;;;;5052592;28;20197;-46
2023/07/29 04:53:04;;;;;;;6.90;3.67;;;21.80;86.50;;;;;;5052931;28;20201;-45
2023/07/29 04:55:30;;;;;;;13.50;9.30;;;21.80;87.40;;;;;;5052610;28;20196;-44
2023/07/29 04:57:55;;;;;;;8.50;6.57;;;21.70;88.50;;;;;;5053270;28;20270;-43
2023/07/29 05:00:21;;;;;;;10.17;6.70;;;21.70;88.80;;;;;;5052555;28;20220;-43
2023/07/29 05:02:46;;;;;;;9.37;6.00;;;21.90;87.50;;;;;;5052631;28;20631;-45
2023/07/29 05:05:12;;;;;;;6.73;3.50;;;22.10;86.50;;;;;;5051078;28;20576;-44
2023/07/29 05:07:37;;;;;;;6.23;3.50;;;22.10;85.70;;;;;;5052988;28;20228;-44
2023/07/29 05:10:03;;;;;;;4.37;3.87;;;22.10;85.50;;;;;;5052376;28;20204;-44
2023/07/29 05:12:29;;;;;;;4.03;3.63;;;22.30;84.90;;;;;;5052211;28;20204;-44
2023/07/29 05:14:54;;;;;;;3.23;2.70;;;22.40;84.30;;;;;;5051541;28;20244;-43
2023/07/29 05:17:21;;;;;;;3.13;2.13;;;22.50;83.90;;;;;;5053159;28;20201;-44
2023/07/29 05:19:47;;;;;;;2.93;2.67;;;22.50;84.00;;;;;;5052998;28;20193;-43
2023/07/29 05:22:12;;;;;;;2.73;2.23;;;22.30;84.50;;;;;;5051601;28;20485;-44
2023/07/29 05:24:38;;;;;;;2.70;1.87;;;22.30;85.30;;;;;;5052696;28;20276;-43
2023/07/29 05:27:04;;;;;;;2.13;1.90;;;22.20;86.00;;;;;;5052127;28;20188;-44
2023/07/29 05:29:29;;;;;;;2.03;1.83;;;22.20;86.70;;;;;;5052721;28;20189;-43
2023/07/29 05:31:55;;;;;;;5.17;2.17;;;22.30;86.50;;;;;;5050339;28;20199;-43
2023/07/29 05:34:20;;;;;;;2.97;2.13;;;22.10;87.40;;;;;;5052035;28;20322;-43
2023/07/29 05:36:46;;;;;;;2.63;2.40;;;21.90;89.00;;;;;;5051941;28;20192;-44
2023/07/29 05:39:12;;;;;;;3.50;3.10;;;21.70;90.30;;;;;;5052720;28;20200;-44
2023/07/29 05:41:37;;;;;;;2.77;2.57;;;21.60;91.50;;;;;;5051450;28;20224;-46
2023/07/29 05:44:03;;;;;;;2.30;2.07;;;21.70;91.10;;;;;;5052108;28;20192;-44
2023/07/29 05:46:29;;;;;;;3.27;2.37;;;21.80;90.60;;;;;;5051901;28;20211;-45
2023/07/29 05:48:54;;;;;;;2.40;2.20;;;21.60;90.90;;;;;;5052169;28;20200;-46
2023/07/29 05:51:20;;;;;;;3.17;2.50;;;21.70;91.10;;;;;;5051498;28;20656;-43
2023/07/29 05:53:45;;;;;;;2.53;2.27;;;21.70;91.50;;;;;;5051862;28;20220;-43
2023/07/29 05:56:11;;;;;;;3.60;2.50;;;21.80;91.00;;;;;;5051392;28;20200;-43
2023/07/29 05:58:37;;;;;;;3.67;2.50;;;22.10;90.50;;;;;;5050199;28;20196;-43
2023/07/29 06:01:02;;;;;;;2.63;2.43;;;22.30;90.00;;;;;;5051683;28;20369;-44
2023/07/29 06:03:28;;;;;;;4.50;1.90;;;22.40;89.20;;;;;;5051832;28;20200;-44
2023/07/29 06:05:54;;;;;;;1.97;1.87;;;22.50;88.70;;;;;;5051358;28;20671;-44
2023/07/29 06:08:19;;;;;;;2.40;2.20;;;22.50;87.20;;;;;;5051664;28;20623;-44
2023/07/29 06:10:45;;;;;;;2.20;1.97;;;22.50;88.10;;;;;;5051293;28;20439;-44
2023/07/29 06:13:11;;;;;;;2.13;1.93;;;22.70;87.40;;;;;;5051557;28;20189;-44
2023/07/29 06:15:36;;;;;;;2.77;1.87;;;22.90;87.40;;;;;;5051118;28;20290;-43
2023/07/29 06:18:02;;;;;;;2.30;1.83;;;22.90;87.20;;;;;;5052049;28;20639;-44
2023/07/29 06:20:28;;;;;;;2.57;1.90;;;23.00;87.20;;;;;;5051120;28;20282;-45
2023/07/29 06:22:53;;;;;;;2.90;2.20;;;23.10;86.80;;;;;;5051543;28;20192;-43
2023/07/29 06:25:19;;;;;;;2.20;2.00;;;23.20;86.70;;;;;;5049063;28;20462;-43
2023/07/29 06:27:45;;;;;;;2.73;2.30;;;23.50;86.00;;;;;;5051463;28;20184;-44
2023/07/29 06:30:10;;;;;;;2.00;1.90;;;23.60;85.10;;;;;;5050980;28;20280;-45
2023/07/29 06:32:36;;;;;;;2.27;2.07;;;23.60;83.30;;;;;;5051110;28;20196;-45
2023/07/29 06:35:02;;;;;;;3.40;1.80;;;23.60;83.40;;;;;;5050722;28;20196;-44
2023/07/29 06:37:27;;;;;;;3.27;1.87;;;23.60;83.00;;;;;;5051748;28;20231;-44
2023/07/29 06:39:53;;;;;;;2.20;1.50;;;23.70;82.60;;;;;;5051149;28;20294;-43
2023/07/29 06:42:18;;;;;;;3.10;1.87;;;23.70;80.80;;;;;;5051180;28;20227;-43
2023/07/29 06:44:45;;;;;;;1.93;1.83;;;23.80;80.80;;;;;;5051301;28;20188;-44
2023/07/29 06:47:11;;;;;;;1.80;1.70;;;23.80;81.90;;;;;;5050814;28;20205;-43
2023/07/29 06:49:37;;;;;;;2.40;1.37;;;23.90;81.20;;;;;;5051340;28;20419;-43
2023/07/29 06:52:02;;;;;;;1.60;1.50;;;24.00;79.80;;;;;;5048757;28;20607;-43
2023/07/29 06:54:28;;;;;;;1.83;1.63;;;24.10;79.20;;;;;;5051069;28;20610;-44
2023/07/29 06:56:54;;;;;;;2.20;2.00;;;24.20;79.00;;;;;;5050885;28;20203;-45
2023/07/29 06:59:19;;;;;;;1.97;1.87;;;24.10;78.00;;;;;;5051260;28;20188;-44
2023/07/29 07:01:45;;;;;;;2.93;2.30;;;24.10;78.10;;;;;;5050793;28;20220;-44
2023/07/29 07:04:11;;;;;;;2.40;2.20;;;24.10;78.40;;;;;;5050429;28;20211;-44
2023/07/29 07:06:36;;;;;;;3.13;1.90;;;24.20;78.30;;;;;;5050667;28;20223;-44
2023/07/29 07:09:02;;;;;;;3.60;2.30;;;24.20;77.80;;;;;;5051038;28;20203;-43
2023/07/29 07:11:28;;;;;;;2.53;2.30;;;24.10;78.10;;;;;;5050663;28;20192;-46
2023/07/29 07:13:54;;;;;;;2.70;2.50;;;24.10;78.20;;;;;;5050513;28;20201;-44
2023/07/29 07:16:19;;;;;;;2.33;2.13;;;24.10;77.80;;;;;;5050625;28;20192;-46
2023/07/29 07:18:45;;;;;;;2.40;2.10;;;23.80;78.60;;;;;;5049466;28;20184;-44
2023/07/29 07:21:10;;;;;;;3.87;2.17;;;23.30;80.30;;;;;;5050503;28;20546;-43
2023/07/29 07:23:36;;;;;;;2.93;2.13;;;23.20;82.60;;;;;;5050561;28;20192;-45
2023/07/29 07:26:02;;;;;;;4.00;2.50;;;23.00;84.00;;;;;;5050564;28;20200;-44
2023/07/29 07:28:28;;;;;;;2.40;2.20;;;22.70;86.70;;;;;;5050913;28;20636;-44
2023/07/29 07:30:55;;;;;;;2.50;2.23;;;22.50;87.80;;;;;;5050742;28;20530;-46
2023/07/29 07:33:21;;;;;;;2.40;2.07;;;22.40;90.00;;;;;;5050227;28;20204;-47
2023/07/29 07:35:47;;;;;;;2.97;2.43;;;22.30;90.50;;;;;;5050279;28;20427;-43
2023/07/29 07:38:12;;;;;;;3.23;2.30;;;22.60;89.90;;;;;;5052872;28;20781;-48
2023/07/29 07:40:38;;;;;;;2.47;1.90;;;22.80;88.80;;;;;;5052768;28;20277;-44
2023/07/29 07:43:04;;;;;;;3.10;2.23;;;22.90;87.80;;;;;;5053953;28;20192;-45
2023/07/29 07:45:29;;;;;;;2.80;1.97;;;23.00;87.60;;;;;;5052599;28;20193;-48
2023/07/29 07:47:56;;;;;;;2.80;2.60;;;23.10;87.10;;;;;;5054562;28;20203;-49
2023/07/29 07:50:21;;;;;;;2.33;2.00;;;23.10;87.50;;;;;;5053834;28;20535;-48
2023/07/29 07:52:47;;;;;;;4.30;2.40;;;23.20;87.10;;;;;;5053878;28;20817;-47
2023/07/29 07:55:13;;;;;;;2.10;2.00;;;23.40;86.60;;;;;;5054029;28;20199;-47
2023/07/29 07:57:38;;;;;;;3.83;2.30;;;23.50;86.40;;;;;;5054525;28;20193;-48
2023/07/29 08:00:04;;;;;;;3.63;2.53;;;23.60;85.60;;;;;;5054163;28;20199;-49
2023/07/29 08:02:30;;;;;;;2.50;2.23;;;23.60;84.80;;;;;;5053606;28;20263;-47
2023/07/29 08:04:56;;;;;;;4.43;2.67;;;23.60;84.60;;;;;;5053814;28;20873;-44
2023/07/29 08:07:21;;;;;;;2.50;2.30;;;23.70;84.70;;;;;;5054690;28;20192;-46
2023/07/29 08:09:47;;;;;;;3.00;1.80;;;23.80;83.60;;;;;;5054345;28;20282;-46
2023/07/29 08:12:12;;;;;;;2.33;1.60;;;23.80;83.60;;;;;;5051243;28;20203;-43
2023/07/29 08:14:38;;;;;;;2.23;1.60;;;23.90;83.60;;;;;;5054274;28;20236;-45
2023/07/29 08:17:04;;;;;;;1.33;1.23;;;23.90;83.90;;;;;;5053426;28;20669;-44
2023/07/29 08:19:30;;;;;;;1.97;1.63;;;23.90;83.40;;;;;;5054096;28;20192;-45
2023/07/29 08:21:55;;;;;;;4.97;1.67;;;23.90;82.60;;;;;;5052844;28;20665;-47
2023/07/29 08:24:21;;;;;;;1.30;1.20;;;23.70;81.90;;;;;;5054000;28;20216;-44
2023/07/29 08:26:46;;;;;;;3.90;1.70;;;23.70;83.10;;;;;;5053466;28;20227;-45
2023/07/29 08:29:12;;;;;;;2.70;1.90;;;23.80;83.50;;;;;;5054084;28;20639;-44
2023/07/29 08:31:38;;;;;;;1.67;1.30;;;23.70;83.40;;;;;;5052977;28;20603;-44
2023/07/29 08:34:04;;;;;;;1.83;1.63;;;23.80;83.50;;;;;;5053424;28;20238;-48
2023/07/29 08:36:29;;;;;;;1.40;1.30;;;23.90;83.20;;;;;;5053259;28;20423;-46
2023/07/29 08:38:55;;;;;;;1.90;1.80;;;24.00;82.50;;;;;;5052070;28;20212;-43
2023/07/29 08:41:36;;;;;;;1.67;1.40;;;24.10;81.80;;;;;;5052717;28;20300;-45
2023/07/29 08:44:07;;;;;;;2.73;1.70;;;24.20;82.40;;;;;;5052868;28;20438;-44
2023/07/29 08:46:33;;;;;;;1.97;1.67;;;24.30;82.40;;;;;;5052965;28;20430;-45
2023/07/29 08:49:01;;;;;;;2.37;1.40;;;24.20;81.20;;;;;;5052974;28;20910;-45
2023/07/29 08:51:27;;;;;;;1.80;1.70;;;24.40;82.20;;;;;;5052928;28;20232;-44
2023/07/29 08:53:53;;;;;;;1.67;1.57;;;24.60;82.00;;;;;;5052943;28;20427;-45
2023/07/29 08:56:19;;;;;;;2.93;1.50;;;24.80;82.70;;;;;;5052817;28;20435;-44
2023/07/29 08:58:46;;;;;;;1.90;1.73;;;24.60;81.70;;;;;;5053235;28;20427;-44
2023/07/29 09:01:12;;;;;;;1.67;1.57;;;24.80;82.20;;;;;;5052399;28;20220;-48
2023/07/29 09:03:37;;;;;;;2.23;1.87;;;25.10;82.40;;;;;;5052862;28;20508;-46
2023/07/29 09:06:03;;;;;;;2.40;1.80;;;25.20;80.30;;;;;;5050736;28;20483;-44
2023/07/29 09:08:29;;;;;;;4.03;1.50;;;25.10;80.00;;;;;;5053028;28;20192;-45
2023/07/29 09:10:55;;;;;;;2.13;1.60;;;25.20;79.40;;;;;;5052556;28;20271;-49
2023/07/29 09:13:22;;;;;;;1.87;1.77;;;25.40;79.20;;;;;;5052637;28;20637;-44
2023/07/29 09:15:47;;;;;;;5.83;1.97;;;25.40;77.70;;;;;;5052120;28;20463;-48
2023/07/29 09:18:19;;;;;;;2.27;2.00;;;25.40;79.40;;;;;;5052935;28;20934;-47
2023/07/29 09:20:47;;;;;;;1.93;1.80;;;25.70;79.00;;;;;;5052428;28;20217;-45
2023/07/29 09:23:13;;;;;;;1.60;1.50;;;25.90;75.30;;;;;;5052480;28;20435;-46
2023/07/29 09:25:39;;;;;;;2.47;1.50;;;25.90;72.50;;;;;;5052184;28;20419;-46
2023/07/29 09:28:10;;;;;;;2.10;2.00;;;26.20;72.30;;;;;;5052510;28;20192;-45
2023/07/29 09:30:40;;;;;;;1.80;1.70;;;26.50;72.00;;;;;;5051951;28;20423;-44
2023/07/29 09:33:06;;;;;;;1.57;1.33;;;26.50;70.50;;;;;;5050595;28;20433;-46
2023/07/29 09:35:36;;;;;;;5.17;2.33;;;26.30;70.30;;;;;;5051915;28;20439;-45
2023/07/29 09:38:03;;;;;;;3.00;2.13;;;26.40;69.90;;;;;;5052714;28;20291;-45
2023/07/29 09:40:38;;;;;;;2.57;2.37;;;26.40;69.30;;;;;;5051956;28;20447;-45
2023/07/29 09:43:05;;;;;;;2.17;2.07;;;26.40;70.00;;;;;;5052154;28;20415;-44
2023/07/29 09:45:34;;;;;;;3.07;1.80;;;26.70;70.00;;;;;;5051661;28;20427;-46
2023/07/29 09:47:59;;;;;;;1.73;1.63;;;26.80;68.30;;;;;;5052394;28;20477;-46
2023/07/29 09:50:26;;;;;;;2.70;2.20;;;26.90;69.20;;;;;;5051930;28;20923;-45
2023/07/29 09:52:52;;;;;;;2.23;2.00;;;27.10;68.90;;;;;;5052130;28;20193;-44
2023/07/29 09:55:21;;;;;;;1.83;1.73;;;27.10;64.60;;;;;;5050255;28;20925;-44
2023/07/29 09:57:46;;;;;;;2.20;1.80;;;27.30;63.90;;;;;;5052056;28;20430;-44
2023/07/29 10:00:12;;;;;;;4.67;2.03;;;27.50;64.20;;;;;;5049414;28;20922;-44
2023/07/29 10:02:43;;;;;;;2.07;1.90;;;27.60;62.60;;;;;;5051679;28;20224;-48
2023/07/29 10:05:09;;;;;;;2.10;1.90;;;27.60;63.00;;;;;;5051696;28;20438;-44
2023/07/29 10:07:39;;;;;;;2.30;1.63;;;27.50;62.80;;;;;;5051922;28;20422;-44
2023/07/29 10:10:07;;;;;;;1.30;1.20;;;27.50;63.20;;;;;;5051487;28;20423;-46
2023/07/29 10:12:34;;;;;;;2.13;1.93;;;27.40;61.70;;;;;;5051397;28;20427;-44
2023/07/29 10:15:02;;;;;;;2.00;1.60;;;27.50;64.50;;;;;;5051045;28;20459;-44
2023/07/29 10:17:30;;;;;;;2.30;1.90;;;27.80;63.40;;;;;;5051751;28;20430;-47
2023/07/29 10:19:58;;;;;;;2.47;1.73;;;28.00;62.80;;;;;;5051182;28;20799;-44
2023/07/29 10:22:28;;;;;;;1.70;1.60;;;28.10;59.40;;;;;;5051242;28;20531;-45
2023/07/29 10:25:03;;;;;;;1.87;1.77;;;28.20;59.00;;;;;;5051328;28;20804;-47
2023/07/29 10:27:30;;;;;;;1.90;1.80;;;28.10;56.70;;;;;;5050206;28;20551;-44
2023/07/29 10:29:56;;;;;;;1.87;1.73;;;28.10;56.80;;;;;;5050989;28;20470;-44
2023/07/29 10:32:26;;;;;;;1.50;1.40;;;28.30;58.80;;;;;;5050951;28;20915;-46
2023/07/29 10:34:52;;;;;;;1.83;1.47;;;28.50;58.30;;;;;;5051202;28;20435;-44
2023/07/29 10:37:18;;;;;;;1.40;1.30;;;28.70;58.60;;;;;;5051512;28;20438;-46
2023/07/29 10:39:55;;;;;;;1.60;1.50;;;28.80;58.10;;;;;;5051577;28;20601;-47
2023/07/29 10:42:21;;;;;;;1.47;1.37;;;28.60;58.80;;;;;;5050787;28;20600;-46
2023/07/29 10:44:54;;;;;;;1.73;1.63;;;28.40;59.10;;;;;;5051438;28;20506;-47
2023/07/29 10:47:25;;;;;;;2.80;1.70;;;28.20;59.70;;;;;;5051466;28;20427;-47
2023/07/29 10:49:54;;;;;;;2.77;1.47;;;28.10;61.80;;;;;;5050990;28;20430;-45
2023/07/29 10:52:35;;;;;;;2.90;1.43;;;28.00;62.90;;;;;;5050623;28;20430;-47
2023/07/29 10:55:02;;;;;;;1.83;1.30;;;28.00;63.50;;;;;;5049295;28;20430;-46
2023/07/29 10:57:36;;;;;;;1.90;1.40;;;28.00;64.60;;;;;;5051710;28;20501;-47
2023/07/29 11:00:04;;;;;;;1.10;1.00;;;27.90;63.10;;;;;;5050737;28;20907;-45
2023/07/29 11:02:37;;;;;;;3.90;1.50;;;27.90;64.70;;;;;;5050515;28;20486;-47
2023/07/29 11:05:07;;;;;;;1.53;1.40;;;28.00;63.80;;;;;;5050569;28;20427;-46
2023/07/29 11:07:44;;;;;;;1.80;1.70;;;28.00;62.50;;;;;;5051322;28;20443;-49
2023/07/29 11:10:11;;;;;;;1.40;1.30;;;28.00;61.60;;;;;;5050565;28;20785;-46
2023/07/29 11:12:40;;;;;;;1.63;1.53;;;28.10;61.80;;;;;;5053373;28;20415;-45
2023/07/29 11:15:12;;;;;;;5.20;1.40;;;28.20;61.50;;;;;;5054678;28;20471;-47
2023/07/29 11:17:45;;;;;;;1.50;1.40;;;28.20;61.70;;;;;;5055561;28;20787;-46
2023/07/29 11:20:12;;;;;;;1.57;1.47;;;28.20;59.20;;;;;;5053553;28;20430;-47
2023/07/29 11:22:38;;;;;;;1.40;1.30;;;28.10;60.70;;;;;;5052731;28;20561;-46
2023/07/29 11:25:06;;;;;;;1.10;1.10;;;28.30;60.20;;;;;;5054489;28;20426;-45
2023/07/29 11:27:32;;;;;;;2.57;1.50;;;28.50;58.20;;;;;;5055105;28;20423;-47
2023/07/29 11:30:05;;;;;;;2.80;1.43;;;28.50;57.70;;;;;;5054577;28;20434;-47
2023/07/29 11:32:31;;;;;;;1.83;1.37;;;28.60;58.90;;;;;;5054320;28;20196;-45
2023/07/29 11:35:00;;;;;;;1.30;1.20;;;28.80;58.40;;;;;;5054249;28;20947;-46
2023/07/29 11:37:26;;;;;;;1.50;1.40;;;29.00;58.00;;;;;;5055049;28;20427;-47
2023/07/29 11:39:52;;;;;;;1.50;1.40;;;29.10;56.40;;;;;;5054352;28;20426;-50
2023/07/29 11:42:17;;;;;;;3.97;1.90;;;29.20;56.30;;;;;;5053926;28;20547;-47
2023/07/29 11:44:43;;;;;;;1.63;1.53;;;29.40;55.40;;;;;;5054529;28;20204;-47
2023/07/29 11:47:10;;;;;;;2.27;1.80;;;29.30;54.50;;;;;;5053239;28;20197;-49
2023/07/29 11:49:37;;;;;;;1.70;1.60;;;29.40;54.60;;;;;;5054067;28;20691;-47
2023/07/29 11:52:05;;;;;;;1.63;1.53;;;29.40;54.00;;;;;;5053569;28;20518;-46
2023/07/29 11:54:31;;;;;;;1.60;1.50;;;29.50;54.20;;;;;;5054417;28;20560;-47
2023/07/29 11:56:57;;;;;;;1.40;1.27;;;29.60;53.70;;;;;;5054096;28;20517;-50
2023/07/29 11:59:23;;;;;;;2.00;1.80;;;29.40;53.00;;;;;;5054492;28;20184;-46
2023/07/29 12:01:49;;;;;;;2.30;2.10;;;29.20;54.10;;;;;;5053682;28;20630;-48
2023/07/29 12:04:15;;;;;;;1.50;1.40;;;29.30;54.20;;;;;;5054201;28;20423;-47
2023/07/29 12:06:41;;;;;;;1.77;1.47;;;29.40;53.90;;;;;;5053705;28;20184;-49
2023/07/29 12:09:09;;;;;;;2.10;1.63;;;29.50;54.20;;;;;;5054379;28;20435;-48
2023/07/29 12:11:34;;;;;;;1.60;1.50;;;29.70;53.80;;;;;;5053280;28;20435;-47
2023/07/29 12:14:00;;;;;;;1.87;1.40;;;29.90;52.20;;;;;;5053597;28;20446;-49
2023/07/29 12:16:26;;;;;;;1.30;1.20;;;30.10;52.10;;;;;;5052796;28;20235;-50
2023/07/29 12:18:52;;;;;;;1.50;1.40;;;30.20;52.30;;;;;;5054110;28;20200;-46
2023/07/29 12:21:19;;;;;;;1.47;1.37;;;30.40;52.00;;;;;;5053631;28;20278;-47
2023/07/29 12:23:45;;;;;;;1.90;1.60;;;30.60;52.30;;;;;;5052976;28;20198;-48
2023/07/29 12:26:10;;;;;;;1.53;1.43;;;30.70;51.00;;;;;;5053576;28;20799;-49
2023/07/29 12:28:36;;;;;;;2.80;1.97;;;30.70;49.80;;;;;;5053931;28;20640;-49
2023/07/29 12:31:01;;;;;;;2.33;2.13;;;30.90;50.80;;;;;;5052969;28;20621;-45
2023/07/29 12:33:32;;;;;;;1.77;1.67;;;30.80;49.40;;;;;;5053661;28;20184;-47
2023/07/29 12:35:58;;;;;;;1.83;1.73;;;30.80;50.10;;;;;;5053093;28;20255;-47
2023/07/29 12:38:26;;;;;;;1.73;1.63;;;30.90;48.90;;;;;;5053947;28;20431;-47
2023/07/29 12:40:52;;;;;;;1.70;1.60;;;31.00;49.50;;;;;;5052613;28;20216;-49
2023/07/29 12:43:17;;;;;;;1.43;1.33;;;31.00;48.50;;;;;;5052046;28;20446;-48
2023/07/29 12:45:43;;;;;;;1.47;1.37;;;31.00;48.80;;;;;;5053017;28;20561;-46